JAL203 VMMC-RJTT
Flight info
| Callsign | JAL203 |
|---|---|
| Flight time | 3h 28m |
| Altitude | 35000 |
| Route | CONGA V631 ENVAR M750 BILLY Y21 AKSEL |
| Aircraft | B77W/H-SDE1E2E3FGHIJ2J3J4J5M1RWXY/LB1D1 |
Departure
| Time | 2026-04-21 08:45 |
|---|---|
| Airport | Macau International Airport (VMMC) |
Arrival
| Time | 2026-04-21 12:13 |
|---|---|
| Airport | Tokyo Haneda International Airport (RJTT) |
| Time | Latitude | Longitude | Altitude | Speed | Heading |
|---|---|---|---|---|---|
| 2026-04-21 08:24 | 22.15687 | 113.57530 | 34 ft | 0 kts | 314° |
| 2026-04-21 08:39 | 22.15679 | 113.57539 | 32 ft | 2 kts | 319° |
| 2026-04-21 08:39 | 22.15666 | 113.57550 | 31 ft | 2 kts | 324° |
| 2026-04-21 08:39 | 22.15652 | 113.57560 | 31 ft | 2 kts | 337° |
| 2026-04-21 08:40 | 22.15636 | 113.57565 | 31 ft | 2 kts | 0° |
| 2026-04-21 08:40 | 22.15620 | 113.57561 | 32 ft | 2 kts | 30° |
| 2026-04-21 08:40 | 22.15608 | 113.57552 | 32 ft | 1 kts | 46° |
| 2026-04-21 08:40 | 22.15606 | 113.57549 | 32 ft | 0 kts | 47° |
| 2026-04-21 08:42 | 22.15609 | 113.57552 | 32 ft | 2 kts | 47° |
| 2026-04-21 08:42 | 22.15640 | 113.57589 | 32 ft | 11 kts | 45° |
| 2026-04-21 08:42 | 22.15727 | 113.57656 | 33 ft | 19 kts | 32° |
| 2026-04-21 08:42 | 22.15862 | 113.57703 | 33 ft | 21 kts | 14° |
| 2026-04-21 08:43 | 22.16002 | 113.57740 | 33 ft | 21 kts | 14° |
| 2026-04-21 08:43 | 22.16108 | 113.57829 | 33 ft | 21 kts | 71° |
| 2026-04-21 08:43 | 22.16156 | 113.57981 | 33 ft | 23 kts | 69° |
| 2026-04-21 08:43 | 22.16214 | 113.58164 | 33 ft | 28 kts | 71° |
| 2026-04-21 08:44 | 22.16281 | 113.58371 | 33 ft | 29 kts | 71° |
| 2026-04-21 08:44 | 22.16340 | 113.58560 | 33 ft | 16 kts | 71° |
| 2026-04-21 08:44 | 22.16311 | 113.58641 | 33 ft | 13 kts | 155° |
| 2026-04-21 08:44 | 22.16161 | 113.58695 | 34 ft | 48 kts | 161° |
| 2026-04-21 08:45 | 22.15584 | 113.58906 | 32 ft | 125 kts | 161° |
| 2026-04-21 08:45 | 22.14555 | 113.59284 | 55 ft | 181 kts | 164° |
| 2026-04-21 08:45 | 22.13334 | 113.59691 | 686 ft | 186 kts | 165° |
| 2026-04-21 08:45 | 22.12106 | 113.60115 | 1496 ft | 182 kts | 162° |
| 2026-04-21 08:46 | 22.10916 | 113.60594 | 2338 ft | 180 kts | 162° |
| 2026-04-21 08:46 | 22.09745 | 113.61055 | 3153 ft | 178 kts | 162° |
| 2026-04-21 08:46 | 22.08562 | 113.61514 | 3788 ft | 186 kts | 162° |
| 2026-04-21 08:46 | 22.07256 | 113.62014 | 4031 ft | 217 kts | 162° |
| 2026-04-21 08:47 | 22.06259 | 113.62393 | 4032 ft | 238 kts | 162° |
| 2026-04-21 08:47 | 22.04670 | 113.62997 | 4645 ft | 251 kts | 162° |
| 2026-04-21 08:47 | 22.04097 | 113.63215 | 4907 ft | 254 kts | 162° |
| 2026-04-21 08:47 | 22.01832 | 113.64071 | 6021 ft | 265 kts | 163° |
| 2026-04-21 08:48 | 22.00068 | 113.64736 | 6893 ft | 270 kts | 163° |
| 2026-04-21 08:48 | 21.98865 | 113.65188 | 7480 ft | 273 kts | 163° |
| 2026-04-21 08:48 | 21.96453 | 113.66085 | 8627 ft | 280 kts | 165° |
| 2026-04-21 08:48 | 21.95221 | 113.66530 | 9194 ft | 283 kts | 165° |
| 2026-04-21 08:49 | 21.93308 | 113.67216 | 10051 ft | 289 kts | 165° |
| 2026-04-21 08:49 | 21.91409 | 113.67898 | 10803 ft | 296 kts | 165° |
| 2026-04-21 08:49 | 21.89378 | 113.68623 | 11158 ft | 320 kts | 165° |
| 2026-04-21 08:49 | 21.87168 | 113.69413 | 11368 ft | 348 kts | 165° |
| 2026-04-21 08:50 | 21.83977 | 113.70558 | 11790 ft | 376 kts | 164° |
| 2026-04-21 08:50 | 21.82280 | 113.71170 | 12226 ft | 384 kts | 164° |
| 2026-04-21 08:50 | 21.79715 | 113.72098 | 12972 ft | 391 kts | 165° |
| 2026-04-21 08:50 | 21.77123 | 113.73035 | 13786 ft | 396 kts | 165° |
| 2026-04-21 08:51 | 21.74526 | 113.73971 | 14487 ft | 401 kts | 165° |
| 2026-04-21 08:51 | 21.71856 | 113.74933 | 15169 ft | 407 kts | 164° |
| 2026-04-21 08:51 | 21.69136 | 113.75912 | 15825 ft | 414 kts | 164° |
| 2026-04-21 08:51 | 21.66388 | 113.76899 | 16489 ft | 419 kts | 164° |
| 2026-04-21 08:52 | 21.63605 | 113.77933 | 17105 ft | 422 kts | 160° |
| 2026-04-21 08:52 | 21.61110 | 113.79609 | 17530 ft | 438 kts | 139° |
| 2026-04-21 08:52 | 21.59224 | 113.82224 | 18139 ft | 447 kts | 119° |
| 2026-04-21 08:52 | 21.58144 | 113.85362 | 18750 ft | 452 kts | 101° |
| 2026-04-21 08:53 | 21.57889 | 113.88710 | 19294 ft | 451 kts | 91° |
| 2026-04-21 08:53 | 21.57800 | 113.92113 | 19746 ft | 459 kts | 91° |
| 2026-04-21 08:53 | 21.57728 | 113.95559 | 20335 ft | 461 kts | 91° |
| 2026-04-21 08:53 | 21.57651 | 113.99017 | 20967 ft | 464 kts | 91° |
| 2026-04-21 08:54 | 21.57560 | 114.02488 | 21558 ft | 467 kts | 91° |
| 2026-04-21 08:54 | 21.57453 | 114.06000 | 22105 ft | 471 kts | 91° |
| 2026-04-21 08:54 | 21.57335 | 114.09524 | 22610 ft | 475 kts | 91° |
| 2026-04-21 08:54 | 21.57210 | 114.13046 | 23132 ft | 479 kts | 91° |
| 2026-04-21 08:55 | 21.57078 | 114.16638 | 23611 ft | 482 kts | 92° |
| 2026-04-21 08:55 | 21.56942 | 114.20265 | 24022 ft | 486 kts | 92° |
| 2026-04-21 08:55 | 21.56806 | 114.23907 | 24445 ft | 489 kts | 92° |
| 2026-04-21 08:55 | 21.56668 | 114.27571 | 24867 ft | 492 kts | 92° |
| 2026-04-21 08:56 | 21.56529 | 114.31259 | 25279 ft | 495 kts | 92° |
| 2026-04-21 08:56 | 21.56389 | 114.34967 | 25680 ft | 498 kts | 92° |
| 2026-04-21 08:56 | 21.56247 | 114.38701 | 26079 ft | 502 kts | 92° |
| 2026-04-21 08:56 | 21.56104 | 114.42455 | 26478 ft | 504 kts | 92° |
| 2026-04-21 08:57 | 21.55959 | 114.46222 | 26857 ft | 508 kts | 92° |
| 2026-04-21 08:57 | 21.55814 | 114.49984 | 27229 ft | 511 kts | 92° |
| 2026-04-21 08:57 | 21.55665 | 114.53808 | 27600 ft | 514 kts | 92° |
| 2026-04-21 08:57 | 21.55515 | 114.57665 | 27974 ft | 517 kts | 92° |
| 2026-04-21 08:58 | 21.55363 | 114.61535 | 28332 ft | 519 kts | 92° |
| 2026-04-21 08:58 | 21.55209 | 114.65419 | 28672 ft | 522 kts | 92° |
| 2026-04-21 08:58 | 21.55054 | 114.69333 | 28989 ft | 525 kts | 92° |
| 2026-04-21 08:58 | 21.54896 | 114.73260 | 29303 ft | 528 kts | 92° |
| 2026-04-21 08:59 | 21.54738 | 114.77204 | 29648 ft | 529 kts | 92° |
| 2026-04-21 08:59 | 21.54578 | 114.81150 | 30055 ft | 529 kts | 92° |
| 2026-04-21 08:59 | 21.54419 | 114.85046 | 30450 ft | 527 kts | 92° |
| 2026-04-21 08:59 | 21.54258 | 114.88981 | 30883 ft | 526 kts | 92° |
| 2026-04-21 09:00 | 21.54097 | 114.92910 | 31253 ft | 526 kts | 92° |
| 2026-04-21 09:00 | 21.53934 | 114.96843 | 31616 ft | 526 kts | 92° |
| 2026-04-21 09:00 | 21.53770 | 115.00764 | 31986 ft | 526 kts | 92° |
| 2026-04-21 09:00 | 21.53606 | 115.04694 | 32390 ft | 525 kts | 92° |
| 2026-04-21 09:01 | 21.53442 | 115.08603 | 32798 ft | 524 kts | 92° |
| 2026-04-21 09:01 | 21.53277 | 115.12509 | 33193 ft | 523 kts | 92° |
| 2026-04-21 09:01 | 21.53237 | 115.16412 | 33561 ft | 521 kts | 85° |
| 2026-04-21 09:01 | 21.53594 | 115.20284 | 33882 ft | 521 kts | 81° |
| 2026-04-21 09:02 | 21.54126 | 115.24128 | 34192 ft | 520 kts | 79° |
| 2026-04-21 09:02 | 21.54711 | 115.27915 | 34542 ft | 518 kts | 78° |
| 2026-04-21 09:02 | 21.55299 | 115.31733 | 34911 ft | 517 kts | 79° |
| 2026-04-21 09:03 | 21.56377 | 115.39352 | 35538 ft | 515 kts | 79° |
| 2026-04-21 09:03 | 21.56874 | 115.43162 | 35856 ft | 514 kts | 80° |
| 2026-04-21 09:03 | 21.57355 | 115.46969 | 36167 ft | 513 kts | 80° |
| 2026-04-21 09:03 | 21.57827 | 115.50765 | 36458 ft | 513 kts | 79° |
| 2026-04-21 09:04 | 21.58298 | 115.54557 | 36739 ft | 512 kts | 79° |
| 2026-04-21 09:04 | 21.58772 | 115.58371 | 36830 ft | 516 kts | 79° |
| 2026-04-21 09:04 | 21.59727 | 115.66023 | 36879 ft | 516 kts | 79° |
| 2026-04-21 09:05 | 21.60676 | 115.73635 | 36883 ft | 510 kts | 79° |
| 2026-04-21 09:05 | 21.61608 | 115.81134 | 36892 ft | 509 kts | 79° |
| 2026-04-21 09:06 | 21.62543 | 115.88670 | 36892 ft | 508 kts | 79° |
| 2026-04-21 09:06 | 21.63474 | 115.96208 | 36894 ft | 509 kts | 79° |
| 2026-04-21 09:07 | 21.64402 | 116.03755 | 36892 ft | 510 kts | 79° |
| 2026-04-21 09:07 | 21.65329 | 116.11320 | 36893 ft | 511 kts | 79° |
| 2026-04-21 09:08 | 21.66255 | 116.18914 | 36898 ft | 512 kts | 79° |
| 2026-04-21 09:08 | 21.67179 | 116.26519 | 36897 ft | 513 kts | 79° |
| 2026-04-21 09:09 | 21.68100 | 116.34127 | 36899 ft | 514 kts | 80° |
| 2026-04-21 09:09 | 21.69013 | 116.41698 | 36897 ft | 514 kts | 80° |
| 2026-04-21 09:10 | 21.69930 | 116.49330 | 36898 ft | 514 kts | 80° |
| 2026-04-21 09:10 | 21.70844 | 116.56967 | 36892 ft | 513 kts | 80° |
| 2026-04-21 09:11 | 21.71746 | 116.64536 | 36901 ft | 513 kts | 80° |
| 2026-04-21 09:11 | 21.72651 | 116.72160 | 36899 ft | 513 kts | 80° |
| 2026-04-21 09:12 | 21.73680 | 116.79734 | 36887 ft | 509 kts | 71° |
| 2026-04-21 09:12 | 21.76110 | 116.86821 | 36898 ft | 503 kts | 63° |
| 2026-04-21 09:13 | 21.78848 | 116.93753 | 36901 ft | 504 kts | 64° |
| 2026-04-21 09:13 | 21.81488 | 117.00748 | 36902 ft | 505 kts | 65° |
| 2026-04-21 09:14 | 21.84027 | 117.07755 | 36903 ft | 506 kts | 65° |
| 2026-04-21 09:14 | 21.86571 | 117.14842 | 36905 ft | 507 kts | 65° |
| 2026-04-21 09:15 | 21.89119 | 117.21925 | 36904 ft | 507 kts | 65° |
| 2026-04-21 09:15 | 21.91670 | 117.29010 | 36905 ft | 508 kts | 65° |
| 2026-04-21 09:16 | 21.94221 | 117.36109 | 36908 ft | 508 kts | 65° |
| 2026-04-21 09:16 | 21.96759 | 117.43183 | 36908 ft | 509 kts | 65° |
| 2026-04-21 09:17 | 21.99426 | 117.50252 | 36910 ft | 506 kts | 60° |
| 2026-04-21 09:17 | 22.02931 | 117.56797 | 36916 ft | 502 kts | 54° |
| 2026-04-21 09:18 | 22.06613 | 117.63147 | 36913 ft | 503 kts | 54° |
| 2026-04-21 09:18 | 22.10291 | 117.69571 | 36910 ft | 504 kts | 54° |
| 2026-04-21 09:19 | 22.13944 | 117.76035 | 36910 ft | 504 kts | 54° |
| 2026-04-21 09:19 | 22.17589 | 117.82507 | 36915 ft | 505 kts | 54° |
| 2026-04-21 09:20 | 22.21245 | 117.88998 | 36915 ft | 506 kts | 54° |
| 2026-04-21 09:20 | 22.24903 | 117.95499 | 36914 ft | 506 kts | 54° |
| 2026-04-21 09:21 | 22.28542 | 118.01952 | 36912 ft | 506 kts | 53° |
| 2026-04-21 09:21 | 22.32303 | 118.08374 | 36915 ft | 506 kts | 53° |
| 2026-04-21 09:22 | 22.36091 | 118.14802 | 36919 ft | 506 kts | 53° |
| 2026-04-21 09:22 | 22.39853 | 118.21240 | 36919 ft | 506 kts | 53° |
| 2026-04-21 09:23 | 22.43542 | 118.27690 | 36918 ft | 507 kts | 54° |
| 2026-04-21 09:23 | 22.47209 | 118.34204 | 36920 ft | 508 kts | 54° |
| 2026-04-21 09:24 | 22.50888 | 118.40727 | 36923 ft | 508 kts | 54° |
| 2026-04-21 09:24 | 22.54580 | 118.47261 | 36921 ft | 508 kts | 54° |
| 2026-04-21 09:25 | 22.58269 | 118.53789 | 36923 ft | 508 kts | 54° |
| 2026-04-21 09:25 | 22.61965 | 118.60264 | 36923 ft | 509 kts | 54° |
| 2026-04-21 09:26 | 22.65704 | 118.66806 | 36922 ft | 509 kts | 54° |
| 2026-04-21 09:26 | 22.69428 | 118.73341 | 36925 ft | 510 kts | 54° |
| 2026-04-21 09:27 | 22.73124 | 118.79843 | 36922 ft | 510 kts | 54° |
| 2026-04-21 09:27 | 22.76847 | 118.86402 | 36930 ft | 511 kts | 54° |
| 2026-04-21 09:28 | 22.80572 | 118.92971 | 36926 ft | 511 kts | 54° |
| 2026-04-21 09:28 | 22.84296 | 118.99548 | 36925 ft | 511 kts | 54° |
| 2026-04-21 09:29 | 22.87995 | 119.06087 | 36924 ft | 512 kts | 54° |
| 2026-04-21 09:29 | 22.91715 | 119.12673 | 36927 ft | 512 kts | 54° |
| 2026-04-21 09:30 | 22.95433 | 119.19264 | 36927 ft | 513 kts | 54° |
| 2026-04-21 09:30 | 22.99164 | 119.25885 | 36926 ft | 513 kts | 54° |
| 2026-04-21 09:31 | 23.02891 | 119.32510 | 36926 ft | 514 kts | 54° |
| 2026-04-21 09:31 | 23.06620 | 119.39147 | 36928 ft | 515 kts | 54° |
| 2026-04-21 09:32 | 23.10352 | 119.45796 | 36927 ft | 516 kts | 54° |
| 2026-04-21 09:32 | 23.14061 | 119.52416 | 36928 ft | 516 kts | 54° |
| 2026-04-21 09:33 | 23.17801 | 119.59098 | 36928 ft | 517 kts | 54° |
| 2026-04-21 09:33 | 23.21539 | 119.65788 | 36930 ft | 518 kts | 54° |
| 2026-04-21 09:34 | 23.25273 | 119.72486 | 36932 ft | 518 kts | 54° |
| 2026-04-21 09:34 | 23.29009 | 119.79197 | 36933 ft | 519 kts | 54° |
| 2026-04-21 09:35 | 23.32118 | 119.84786 | 36936 ft | 519 kts | 54° |
| 2026-04-21 09:35 | 23.36737 | 119.92400 | 36934 ft | 515 kts | 46° |
| 2026-04-21 09:36 | 23.40734 | 119.97137 | 36931 ft | 508 kts | 38° |
| 2026-04-21 09:36 | 23.45907 | 120.02391 | 36933 ft | 508 kts | 37° |
| 2026-04-21 09:37 | 23.51089 | 120.07645 | 36925 ft | 509 kts | 38° |
| 2026-04-21 09:37 | 23.56239 | 120.12940 | 36920 ft | 509 kts | 38° |
| 2026-04-21 09:38 | 23.61381 | 120.18262 | 36927 ft | 509 kts | 38° |
| 2026-04-21 09:38 | 23.66520 | 120.23586 | 36919 ft | 509 kts | 38° |
| 2026-04-21 09:39 | 23.71656 | 120.28909 | 36919 ft | 509 kts | 38° |
| 2026-04-21 09:39 | 23.76767 | 120.34211 | 36926 ft | 509 kts | 38° |
| 2026-04-21 09:40 | 23.81902 | 120.39544 | 36929 ft | 509 kts | 38° |
| 2026-04-21 09:40 | 23.87036 | 120.44883 | 36930 ft | 509 kts | 38° |
| 2026-04-21 09:41 | 23.92171 | 120.50233 | 36929 ft | 510 kts | 38° |
| 2026-04-21 09:41 | 23.97283 | 120.55613 | 36946 ft | 510 kts | 38° |
| 2026-04-21 09:42 | 24.02384 | 120.61007 | 36952 ft | 510 kts | 38° |
| 2026-04-21 09:42 | 24.07461 | 120.66375 | 36959 ft | 510 kts | 38° |
| 2026-04-21 09:43 | 24.12571 | 120.71780 | 36960 ft | 511 kts | 38° |
| 2026-04-21 09:43 | 24.17683 | 120.77191 | 36963 ft | 511 kts | 39° |
| 2026-04-21 09:44 | 24.22793 | 120.82609 | 36958 ft | 511 kts | 39° |
| 2026-04-21 09:44 | 24.27909 | 120.88040 | 36968 ft | 511 kts | 39° |
| 2026-04-21 09:45 | 24.33016 | 120.93467 | 36974 ft | 511 kts | 39° |
| 2026-04-21 09:45 | 24.38123 | 120.98901 | 37001 ft | 511 kts | 39° |
| 2026-04-21 09:46 | 24.43055 | 121.04476 | 36998 ft | 516 kts | 45° |
| 2026-04-21 09:46 | 24.47559 | 121.10675 | 37004 ft | 518 kts | 47° |
| 2026-04-21 09:47 | 24.52012 | 121.16923 | 37008 ft | 518 kts | 47° |
| 2026-04-21 09:47 | 24.56443 | 121.23085 | 37002 ft | 516 kts | 46° |
| 2026-04-21 09:48 | 24.60919 | 121.29266 | 36998 ft | 516 kts | 46° |
| 2026-04-21 09:48 | 24.65370 | 121.35411 | 36988 ft | 515 kts | 46° |
| 2026-04-21 09:49 | 24.69833 | 121.41588 | 36988 ft | 515 kts | 46° |
| 2026-04-21 09:49 | 24.73989 | 121.47351 | 36967 ft | 514 kts | 47° |
| 2026-04-21 09:50 | 24.77671 | 121.52463 | 36969 ft | 512 kts | 46° |
| 2026-04-21 09:50 | 24.82855 | 121.59670 | 36954 ft | 513 kts | 46° |
| 2026-04-21 09:51 | 24.87286 | 121.65834 | 36953 ft | 514 kts | 46° |
| 2026-04-21 09:51 | 24.91731 | 121.71945 | 36950 ft | 513 kts | 44° |
| 2026-04-21 09:52 | 24.96412 | 121.77867 | 36949 ft | 513 kts | 43° |
| 2026-04-21 09:52 | 25.01140 | 121.83792 | 36956 ft | 514 kts | 43° |
| 2026-04-21 09:53 | 25.05829 | 121.89773 | 36960 ft | 515 kts | 44° |
| 2026-04-21 09:53 | 25.10478 | 121.95737 | 36976 ft | 515 kts | 44° |
| 2026-04-21 09:54 | 25.15153 | 122.01738 | 36977 ft | 516 kts | 44° |
| 2026-04-21 09:54 | 25.19816 | 122.07772 | 36965 ft | 516 kts | 44° |
| 2026-04-21 09:55 | 25.24466 | 122.13809 | 36965 ft | 516 kts | 44° |
| 2026-04-21 09:55 | 25.29092 | 122.19816 | 36973 ft | 516 kts | 44° |
| 2026-04-21 09:56 | 25.33750 | 122.25869 | 36973 ft | 516 kts | 44° |
| 2026-04-21 09:56 | 25.38400 | 122.31920 | 36978 ft | 516 kts | 44° |
| 2026-04-21 09:57 | 25.43041 | 122.37968 | 36980 ft | 515 kts | 44° |
| 2026-04-21 09:57 | 25.47676 | 122.44017 | 36984 ft | 515 kts | 44° |
| 2026-04-21 09:58 | 25.52289 | 122.50038 | 36985 ft | 515 kts | 44° |
| 2026-04-21 09:58 | 25.56941 | 122.56076 | 36991 ft | 514 kts | 44° |
| 2026-04-21 09:59 | 25.61594 | 122.62113 | 36991 ft | 514 kts | 44° |
| 2026-04-21 09:59 | 25.66240 | 122.68157 | 36994 ft | 514 kts | 44° |
| 2026-04-21 10:00 | 25.70873 | 122.74194 | 36995 ft | 514 kts | 44° |
| 2026-04-21 10:00 | 25.75479 | 122.80205 | 37003 ft | 515 kts | 44° |
| 2026-04-21 10:01 | 25.80132 | 122.86286 | 37005 ft | 516 kts | 44° |
| 2026-04-21 10:01 | 25.84781 | 122.92370 | 37001 ft | 517 kts | 44° |
| 2026-04-21 10:02 | 25.91731 | 123.01480 | 37001 ft | 517 kts | 44° |
| 2026-04-21 10:03 | 25.96383 | 123.07592 | 36999 ft | 517 kts | 44° |
| 2026-04-21 10:03 | 26.01024 | 123.13703 | 37011 ft | 517 kts | 44° |
| 2026-04-21 10:04 | 26.05659 | 123.19814 | 37002 ft | 516 kts | 44° |
| 2026-04-21 10:04 | 26.10288 | 123.25925 | 37008 ft | 516 kts | 44° |
| 2026-04-21 10:05 | 26.14881 | 123.31996 | 37008 ft | 515 kts | 44° |
| 2026-04-21 10:05 | 26.19499 | 123.38109 | 37010 ft | 515 kts | 44° |
| 2026-04-21 10:06 | 26.24113 | 123.44224 | 37016 ft | 515 kts | 45° |
| 2026-04-21 10:06 | 26.28715 | 123.50332 | 37017 ft | 515 kts | 45° |
| 2026-04-21 10:07 | 26.33324 | 123.56457 | 37017 ft | 515 kts | 45° |
| 2026-04-21 10:07 | 26.37927 | 123.62584 | 37018 ft | 515 kts | 45° |
| 2026-04-21 10:08 | 26.42519 | 123.68703 | 37021 ft | 514 kts | 45° |
| 2026-04-21 10:08 | 26.47117 | 123.74839 | 37021 ft | 514 kts | 45° |
| 2026-04-21 10:09 | 26.51674 | 123.80930 | 37022 ft | 514 kts | 45° |
| 2026-04-21 10:09 | 26.56256 | 123.87063 | 37023 ft | 513 kts | 45° |
| 2026-04-21 10:10 | 26.60829 | 123.93191 | 37021 ft | 513 kts | 45° |
| 2026-04-21 10:10 | 26.65400 | 123.99325 | 37021 ft | 513 kts | 45° |
| 2026-04-21 10:11 | 26.69970 | 124.05452 | 37024 ft | 512 kts | 45° |
| 2026-04-21 10:11 | 26.74536 | 124.11569 | 37023 ft | 512 kts | 45° |
| 2026-04-21 10:12 | 26.79069 | 124.17652 | 37030 ft | 512 kts | 45° |
| 2026-04-21 10:12 | 26.83634 | 124.23791 | 37029 ft | 512 kts | 45° |
| 2026-04-21 10:13 | 26.88183 | 124.29918 | 37029 ft | 512 kts | 45° |
| 2026-04-21 10:13 | 26.92736 | 124.36058 | 37031 ft | 512 kts | 45° |
| 2026-04-21 10:14 | 26.97286 | 124.42202 | 37035 ft | 512 kts | 45° |
| 2026-04-21 10:14 | 27.01842 | 124.48346 | 37034 ft | 512 kts | 45° |
| 2026-04-21 10:15 | 27.06373 | 124.54450 | 37031 ft | 512 kts | 45° |
| 2026-04-21 10:15 | 27.10943 | 124.60618 | 37039 ft | 512 kts | 45° |
| 2026-04-21 10:16 | 27.15501 | 124.66782 | 37039 ft | 513 kts | 45° |
| 2026-04-21 10:16 | 27.20034 | 124.72922 | 37038 ft | 513 kts | 45° |
| 2026-04-21 10:17 | 27.24589 | 124.79100 | 37042 ft | 513 kts | 45° |
| 2026-04-21 10:17 | 27.29152 | 124.85299 | 37040 ft | 514 kts | 46° |
| 2026-04-21 10:18 | 27.33715 | 124.91506 | 37042 ft | 514 kts | 46° |
| 2026-04-21 10:18 | 27.38240 | 124.97670 | 37042 ft | 514 kts | 46° |
| 2026-04-21 10:19 | 27.42803 | 125.03867 | 37045 ft | 514 kts | 46° |
| 2026-04-21 10:19 | 27.47392 | 125.10050 | 37049 ft | 514 kts | 45° |
| 2026-04-21 10:20 | 27.51987 | 125.16243 | 37046 ft | 515 kts | 46° |
| 2026-04-21 10:20 | 27.56571 | 125.22441 | 37049 ft | 515 kts | 46° |
| 2026-04-21 10:21 | 27.61158 | 125.28657 | 37049 ft | 515 kts | 46° |
| 2026-04-21 10:21 | 27.65736 | 125.34872 | 37053 ft | 514 kts | 46° |
| 2026-04-21 10:22 | 27.70276 | 125.41042 | 37049 ft | 514 kts | 46° |
| 2026-04-21 10:22 | 27.74844 | 125.47259 | 37051 ft | 514 kts | 46° |
| 2026-04-21 10:23 | 27.79401 | 125.53471 | 37051 ft | 514 kts | 46° |
| 2026-04-21 10:23 | 27.83216 | 125.58678 | 37054 ft | 513 kts | 46° |
| 2026-04-21 10:24 | 27.87743 | 125.64864 | 37056 ft | 513 kts | 46° |
| 2026-04-21 10:24 | 27.92285 | 125.71081 | 37061 ft | 513 kts | 46° |
| 2026-04-21 10:25 | 27.96829 | 125.77309 | 37068 ft | 513 kts | 46° |
| 2026-04-21 10:25 | 28.01381 | 125.83557 | 37044 ft | 513 kts | 46° |
| 2026-04-21 10:26 | 28.05922 | 125.89800 | 37050 ft | 514 kts | 46° |
| 2026-04-21 10:26 | 28.10436 | 125.96014 | 37068 ft | 514 kts | 46° |
| 2026-04-21 10:27 | 28.14978 | 126.02276 | 37075 ft | 514 kts | 46° |
| 2026-04-21 10:27 | 28.19519 | 126.08545 | 37060 ft | 515 kts | 46° |
| 2026-04-21 10:28 | 28.24062 | 126.14827 | 37066 ft | 515 kts | 46° |
| 2026-04-21 10:28 | 28.28613 | 126.21130 | 37066 ft | 516 kts | 46° |
| 2026-04-21 10:29 | 28.33139 | 126.27406 | 37065 ft | 516 kts | 47° |
| 2026-04-21 10:29 | 28.37716 | 126.33764 | 37066 ft | 517 kts | 47° |
| 2026-04-21 10:30 | 28.42250 | 126.40071 | 37060 ft | 517 kts | 47° |
| 2026-04-21 10:30 | 28.46803 | 126.46414 | 37061 ft | 518 kts | 47° |
| 2026-04-21 10:31 | 28.51354 | 126.52764 | 37071 ft | 518 kts | 47° |
| 2026-04-21 10:31 | 28.55907 | 126.59127 | 37069 ft | 518 kts | 47° |
| 2026-04-21 10:32 | 28.60452 | 126.65488 | 37069 ft | 518 kts | 47° |
| 2026-04-21 10:32 | 28.64991 | 126.71849 | 37065 ft | 518 kts | 47° |
| 2026-04-21 10:33 | 28.69504 | 126.78184 | 37060 ft | 517 kts | 47° |
| 2026-04-21 10:33 | 28.74032 | 126.84550 | 37068 ft | 517 kts | 47° |
| 2026-04-21 10:34 | 28.78556 | 126.90920 | 37064 ft | 517 kts | 47° |
| 2026-04-21 10:34 | 28.83088 | 126.97310 | 37065 ft | 517 kts | 47° |
| 2026-04-21 10:35 | 28.87607 | 127.03693 | 37068 ft | 517 kts | 47° |
| 2026-04-21 10:35 | 28.92102 | 127.10051 | 37065 ft | 517 kts | 47° |
| 2026-04-21 10:36 | 28.96621 | 127.16453 | 37065 ft | 517 kts | 47° |
| 2026-04-21 10:36 | 29.01141 | 127.22866 | 37065 ft | 518 kts | 47° |
| 2026-04-21 10:37 | 29.05650 | 127.29274 | 37066 ft | 518 kts | 46° |
| 2026-04-21 10:37 | 29.10167 | 127.35703 | 37065 ft | 518 kts | 46° |
| 2026-04-21 10:38 | 29.14685 | 127.42143 | 37070 ft | 518 kts | 46° |
| 2026-04-21 10:38 | 29.19201 | 127.48590 | 37071 ft | 518 kts | 46° |
| 2026-04-21 10:39 | 29.23676 | 127.54991 | 37068 ft | 519 kts | 46° |
| 2026-04-21 10:39 | 29.28194 | 127.61461 | 37068 ft | 519 kts | 46° |
| 2026-04-21 10:40 | 29.32695 | 127.67918 | 37065 ft | 519 kts | 46° |
| 2026-04-21 10:40 | 29.37193 | 127.74381 | 37066 ft | 519 kts | 46° |
| 2026-04-21 10:41 | 29.41690 | 127.80852 | 37070 ft | 518 kts | 46° |
| 2026-04-21 10:41 | 29.46183 | 127.87329 | 37073 ft | 518 kts | 46° |
| 2026-04-21 10:42 | 29.50672 | 127.93810 | 37074 ft | 518 kts | 46° |
| 2026-04-21 10:42 | 29.55126 | 128.00246 | 37065 ft | 518 kts | 46° |
| 2026-04-21 10:43 | 29.59609 | 128.06723 | 37069 ft | 517 kts | 46° |
| 2026-04-21 10:43 | 29.64087 | 128.13205 | 37071 ft | 517 kts | 46° |
| 2026-04-21 10:44 | 29.68561 | 128.19692 | 37067 ft | 517 kts | 46° |
| 2026-04-21 10:44 | 29.73032 | 128.26187 | 37069 ft | 517 kts | 46° |
| 2026-04-21 10:45 | 29.77496 | 128.32683 | 37065 ft | 517 kts | 45° |
| 2026-04-21 10:45 | 29.81950 | 128.39175 | 37067 ft | 516 kts | 45° |
| 2026-04-21 10:46 | 29.86403 | 128.45675 | 37066 ft | 516 kts | 45° |
| 2026-04-21 10:46 | 29.90820 | 128.52133 | 37068 ft | 515 kts | 45° |
| 2026-04-21 10:47 | 29.95254 | 128.58626 | 37061 ft | 515 kts | 45° |
| 2026-04-21 10:47 | 29.99681 | 128.65120 | 37059 ft | 514 kts | 45° |
| 2026-04-21 10:48 | 30.04107 | 128.71622 | 37058 ft | 514 kts | 45° |
| 2026-04-21 10:48 | 30.08519 | 128.78115 | 37065 ft | 514 kts | 45° |
| 2026-04-21 10:49 | 30.12896 | 128.84566 | 37067 ft | 513 kts | 45° |
| 2026-04-21 10:49 | 30.17300 | 128.91069 | 37062 ft | 513 kts | 45° |
| 2026-04-21 10:50 | 30.21700 | 128.97576 | 37059 ft | 513 kts | 45° |
| 2026-04-21 10:50 | 30.26103 | 129.04095 | 37062 ft | 513 kts | 45° |
| 2026-04-21 10:51 | 30.30497 | 129.10609 | 37063 ft | 513 kts | 45° |
| 2026-04-21 10:51 | 30.34886 | 129.17129 | 37061 ft | 513 kts | 45° |
| 2026-04-21 10:52 | 30.39273 | 129.23657 | 37059 ft | 513 kts | 45° |
| 2026-04-21 10:52 | 30.43626 | 129.30145 | 37060 ft | 513 kts | 45° |
| 2026-04-21 10:53 | 30.48002 | 129.36679 | 37061 ft | 512 kts | 45° |
| 2026-04-21 10:53 | 30.52369 | 129.43209 | 37059 ft | 512 kts | 45° |
| 2026-04-21 10:54 | 30.56734 | 129.49747 | 37064 ft | 512 kts | 45° |
| 2026-04-21 10:54 | 30.61089 | 129.56282 | 37070 ft | 511 kts | 45° |
| 2026-04-21 10:55 | 30.65438 | 129.62818 | 37065 ft | 511 kts | 45° |
| 2026-04-21 10:55 | 30.69754 | 129.69315 | 37063 ft | 511 kts | 45° |
| 2026-04-21 10:56 | 30.74098 | 129.75865 | 37072 ft | 511 kts | 44° |
| 2026-04-21 10:56 | 30.78435 | 129.82418 | 37076 ft | 511 kts | 44° |
| 2026-04-21 10:57 | 30.82763 | 129.88965 | 37073 ft | 510 kts | 44° |
| 2026-04-21 10:57 | 30.86846 | 129.95777 | 37072 ft | 516 kts | 50° |
| 2026-04-21 10:58 | 30.90609 | 130.02912 | 37079 ft | 517 kts | 51° |
| 2026-04-21 10:58 | 30.94354 | 130.10084 | 37083 ft | 517 kts | 51° |
| 2026-04-21 10:59 | 30.98090 | 130.17172 | 37087 ft | 516 kts | 50° |
| 2026-04-21 10:59 | 31.01856 | 130.24287 | 37072 ft | 516 kts | 50° |
| 2026-04-21 11:00 | 31.05622 | 130.31407 | 37065 ft | 516 kts | 51° |
| 2026-04-21 11:00 | 31.09388 | 130.38541 | 37069 ft | 516 kts | 50° |
| 2026-04-21 11:01 | 31.13145 | 130.45680 | 37076 ft | 516 kts | 50° |
| 2026-04-21 11:01 | 31.16906 | 130.52839 | 37079 ft | 517 kts | 50° |
| 2026-04-21 11:02 | 31.22511 | 130.63534 | 37077 ft | 517 kts | 50° |
| 2026-04-21 11:02 | 31.26259 | 130.70699 | 37081 ft | 517 kts | 50° |
| 2026-04-21 11:03 | 31.30005 | 130.77875 | 37081 ft | 516 kts | 51° |
| 2026-04-21 11:03 | 31.33740 | 130.85043 | 37088 ft | 516 kts | 51° |
| 2026-04-21 11:04 | 31.37471 | 130.92218 | 37086 ft | 516 kts | 51° |
| 2026-04-21 11:04 | 31.41176 | 130.99357 | 37091 ft | 515 kts | 51° |
| 2026-04-21 11:05 | 31.44900 | 131.06543 | 37088 ft | 515 kts | 51° |
| 2026-04-21 11:05 | 31.48623 | 131.13743 | 37097 ft | 515 kts | 51° |
| 2026-04-21 11:06 | 31.52342 | 131.20947 | 37093 ft | 517 kts | 51° |
| 2026-04-21 11:06 | 31.56060 | 131.28164 | 37089 ft | 517 kts | 51° |
| 2026-04-21 11:07 | 31.59751 | 131.35343 | 37089 ft | 517 kts | 51° |
| 2026-04-21 11:07 | 31.63462 | 131.42573 | 37078 ft | 518 kts | 51° |
| 2026-04-21 11:08 | 31.67176 | 131.49835 | 37067 ft | 518 kts | 52° |
| 2026-04-21 11:08 | 31.70879 | 131.57091 | 37066 ft | 518 kts | 52° |
| 2026-04-21 11:09 | 31.73965 | 131.63148 | 37066 ft | 518 kts | 52° |
| 2026-04-21 11:09 | 31.78296 | 131.71662 | 37070 ft | 519 kts | 52° |
| 2026-04-21 11:10 | 31.81368 | 131.77712 | 37084 ft | 519 kts | 52° |
| 2026-04-21 11:10 | 31.85672 | 131.86208 | 37089 ft | 520 kts | 52° |
| 2026-04-21 11:11 | 31.88745 | 131.92283 | 37086 ft | 520 kts | 52° |
| 2026-04-21 11:11 | 31.92445 | 131.99613 | 37085 ft | 521 kts | 52° |
| 2026-04-21 11:12 | 31.96154 | 132.06976 | 37084 ft | 521 kts | 52° |
| 2026-04-21 11:12 | 31.99851 | 132.14328 | 37088 ft | 522 kts | 52° |
| 2026-04-21 11:13 | 32.03521 | 132.21642 | 37085 ft | 522 kts | 53° |
| 2026-04-21 11:13 | 32.07220 | 132.29029 | 37085 ft | 522 kts | 53° |
| 2026-04-21 11:14 | 32.10893 | 132.36375 | 37084 ft | 522 kts | 53° |
| 2026-04-21 11:14 | 32.14420 | 132.43902 | 37085 ft | 525 kts | 57° |
| 2026-04-21 11:15 | 32.17680 | 132.51633 | 37083 ft | 526 kts | 58° |
| 2026-04-21 11:15 | 32.20914 | 132.59392 | 37079 ft | 526 kts | 57° |
| 2026-04-21 11:16 | 32.24171 | 132.67142 | 37089 ft | 526 kts | 57° |
| 2026-04-21 11:16 | 32.27444 | 132.74897 | 37076 ft | 526 kts | 57° |
| 2026-04-21 11:17 | 32.30705 | 132.82637 | 37075 ft | 527 kts | 57° |
| 2026-04-21 11:17 | 32.33946 | 132.90352 | 37078 ft | 527 kts | 58° |
| 2026-04-21 11:18 | 32.37203 | 132.98127 | 37077 ft | 527 kts | 58° |
| 2026-04-21 11:18 | 32.40466 | 133.05925 | 36997 ft | 532 kts | 59° |
| 2026-04-21 11:19 | 32.43783 | 133.13872 | 37089 ft | 544 kts | 59° |
| 2026-04-21 11:19 | 32.47161 | 133.21988 | 37094 ft | 553 kts | 59° |
| 2026-04-21 11:20 | 32.50560 | 133.30183 | 37086 ft | 554 kts | 59° |
| 2026-04-21 11:20 | 32.53932 | 133.38327 | 37078 ft | 554 kts | 59° |
| 2026-04-21 11:21 | 32.57325 | 133.46527 | 37083 ft | 552 kts | 59° |
| 2026-04-21 11:21 | 32.60734 | 133.54697 | 37077 ft | 550 kts | 59° |
| 2026-04-21 11:22 | 32.64101 | 133.62783 | 37078 ft | 549 kts | 59° |
| 2026-04-21 11:22 | 32.67434 | 133.70923 | 37083 ft | 548 kts | 60° |
| 2026-04-21 11:23 | 32.70745 | 133.79067 | 37085 ft | 547 kts | 60° |
| 2026-04-21 11:23 | 32.74050 | 133.87194 | 37089 ft | 547 kts | 59° |
| 2026-04-21 11:24 | 32.77361 | 133.95344 | 37087 ft | 548 kts | 59° |
| 2026-04-21 11:24 | 32.80673 | 134.03519 | 37083 ft | 549 kts | 59° |
| 2026-04-21 11:25 | 32.83517 | 134.11992 | 37080 ft | 555 kts | 70° |
| 2026-04-21 11:25 | 32.85659 | 134.20755 | 37089 ft | 556 kts | 71° |
| 2026-04-21 11:26 | 32.87787 | 134.29624 | 37084 ft | 557 kts | 71° |
| 2026-04-21 11:26 | 32.89962 | 134.38462 | 37078 ft | 557 kts | 70° |
| 2026-04-21 11:27 | 32.92158 | 134.47300 | 37081 ft | 557 kts | 70° |
| 2026-04-21 11:27 | 32.94348 | 134.56152 | 37081 ft | 557 kts | 70° |
| 2026-04-21 11:28 | 32.96511 | 134.64947 | 37076 ft | 556 kts | 70° |
| 2026-04-21 11:28 | 32.98680 | 134.73795 | 37076 ft | 556 kts | 70° |
| 2026-04-21 11:29 | 33.00838 | 134.82631 | 37085 ft | 555 kts | 71° |
| 2026-04-21 11:29 | 33.02982 | 134.91468 | 37065 ft | 555 kts | 71° |
| 2026-04-21 11:30 | 33.05121 | 135.00321 | 37072 ft | 555 kts | 71° |
| 2026-04-21 11:30 | 33.07254 | 135.09172 | 37075 ft | 555 kts | 71° |
| 2026-04-21 11:31 | 33.09378 | 135.18015 | 37073 ft | 555 kts | 71° |
| 2026-04-21 11:31 | 33.11439 | 135.26860 | 37072 ft | 555 kts | 72° |
| 2026-04-21 11:32 | 33.13395 | 135.35735 | 37067 ft | 555 kts | 72° |
| 2026-04-21 11:32 | 33.15359 | 135.44686 | 37065 ft | 555 kts | 72° |
| 2026-04-21 11:33 | 33.17327 | 135.53591 | 37063 ft | 555 kts | 72° |
| 2026-04-21 11:33 | 33.19294 | 135.62496 | 37067 ft | 555 kts | 72° |
| 2026-04-21 11:34 | 33.21243 | 135.71361 | 37066 ft | 555 kts | 72° |
| 2026-04-21 11:34 | 33.23196 | 135.80284 | 37060 ft | 555 kts | 72° |
| 2026-04-21 11:35 | 33.25142 | 135.89203 | 37062 ft | 555 kts | 72° |
| 2026-04-21 11:35 | 33.27073 | 135.98143 | 37066 ft | 555 kts | 72° |
| 2026-04-21 11:36 | 33.28988 | 136.07081 | 37070 ft | 555 kts | 72° |
| 2026-04-21 11:36 | 33.30900 | 136.16027 | 37064 ft | 555 kts | 72° |
| 2026-04-21 11:37 | 33.32794 | 136.24921 | 37062 ft | 555 kts | 72° |
| 2026-04-21 11:37 | 33.34696 | 136.33876 | 37064 ft | 555 kts | 72° |
| 2026-04-21 11:38 | 33.36589 | 136.42827 | 37066 ft | 555 kts | 72° |
| 2026-04-21 11:38 | 33.38476 | 136.51784 | 37064 ft | 555 kts | 72° |
| 2026-04-21 11:39 | 33.40356 | 136.60742 | 37065 ft | 555 kts | 72° |
| 2026-04-21 11:39 | 33.42217 | 136.69649 | 37067 ft | 555 kts | 72° |
| 2026-04-21 11:40 | 33.44087 | 136.78630 | 37065 ft | 555 kts | 72° |
| 2026-04-21 11:40 | 33.45948 | 136.87600 | 37060 ft | 555 kts | 72° |
| 2026-04-21 11:41 | 33.47804 | 136.96581 | 37061 ft | 555 kts | 72° |
| 2026-04-21 11:41 | 33.49646 | 137.05532 | 37052 ft | 556 kts | 72° |
| 2026-04-21 11:42 | 33.51495 | 137.14550 | 37047 ft | 556 kts | 72° |
| 2026-04-21 11:42 | 33.53335 | 137.23563 | 37047 ft | 557 kts | 72° |
| 2026-04-21 11:43 | 33.55171 | 137.32590 | 37039 ft | 558 kts | 73° |
| 2026-04-21 11:43 | 33.57004 | 137.41643 | 37039 ft | 559 kts | 73° |
| 2026-04-21 11:44 | 33.58825 | 137.50667 | 37033 ft | 559 kts | 73° |
| 2026-04-21 11:44 | 33.60807 | 137.59699 | 37026 ft | 557 kts | 67° |
| 2026-04-21 11:45 | 33.63793 | 137.68203 | 37024 ft | 549 kts | 55° |
| 2026-04-21 11:45 | 33.67508 | 137.76195 | 37025 ft | 548 kts | 54° |
| 2026-04-21 11:46 | 33.71260 | 137.84204 | 37026 ft | 550 kts | 54° |
| 2026-04-21 11:46 | 33.74964 | 137.92274 | 37013 ft | 552 kts | 55° |
| 2026-04-21 11:47 | 33.78624 | 138.00333 | 36996 ft | 553 kts | 55° |
| 2026-04-21 11:47 | 33.82314 | 138.08473 | 37019 ft | 553 kts | 55° |
| 2026-04-21 11:48 | 33.85998 | 138.16604 | 37016 ft | 553 kts | 55° |
| 2026-04-21 11:48 | 33.89678 | 138.24744 | 37001 ft | 553 kts | 55° |
| 2026-04-21 11:49 | 33.93344 | 138.32891 | 37003 ft | 553 kts | 56° |
| 2026-04-21 11:49 | 33.96981 | 138.41049 | 37005 ft | 553 kts | 56° |
| 2026-04-21 11:50 | 34.00590 | 138.49166 | 36874 ft | 555 kts | 56° |
| 2026-04-21 11:50 | 34.02432 | 138.53304 | 36093 ft | 563 kts | 56° |
| 2026-04-21 11:50 | 34.04277 | 138.57460 | 35407 ft | 562 kts | 56° |
| 2026-04-21 11:51 | 34.06125 | 138.61633 | 34623 ft | 563 kts | 56° |
| 2026-04-21 11:51 | 34.07971 | 138.65803 | 33756 ft | 564 kts | 56° |
| 2026-04-21 11:51 | 34.09820 | 138.69986 | 32826 ft | 565 kts | 56° |
| 2026-04-21 11:51 | 34.11666 | 138.74166 | 31928 ft | 565 kts | 57° |
| 2026-04-21 11:52 | 34.13512 | 138.78353 | 31031 ft | 565 kts | 57° |
| 2026-04-21 11:52 | 34.15352 | 138.82531 | 30413 ft | 559 kts | 57° |
| 2026-04-21 11:52 | 34.17161 | 138.86649 | 29846 ft | 552 kts | 57° |
| 2026-04-21 11:52 | 34.18952 | 138.90725 | 29237 ft | 545 kts | 57° |
| 2026-04-21 11:53 | 34.20717 | 138.94742 | 28665 ft | 538 kts | 57° |
| 2026-04-21 11:53 | 34.22451 | 138.98721 | 28123 ft | 532 kts | 57° |
| 2026-04-21 11:53 | 34.24131 | 139.02608 | 27592 ft | 526 kts | 57° |
| 2026-04-21 11:53 | 34.25814 | 139.06512 | 27065 ft | 520 kts | 57° |
| 2026-04-21 11:54 | 34.27479 | 139.10371 | 26549 ft | 514 kts | 57° |
| 2026-04-21 11:54 | 34.29061 | 139.14236 | 26020 ft | 512 kts | 62° |
| 2026-04-21 11:54 | 34.30457 | 139.18174 | 25506 ft | 508 kts | 63° |
| 2026-04-21 11:54 | 34.31805 | 139.22119 | 24987 ft | 504 kts | 63° |
| 2026-04-21 11:55 | 34.33128 | 139.26033 | 24485 ft | 501 kts | 64° |
| 2026-04-21 11:55 | 34.34447 | 139.29923 | 23954 ft | 498 kts | 63° |
| 2026-04-21 11:55 | 34.35754 | 139.33749 | 23417 ft | 495 kts | 63° |
| 2026-04-21 11:55 | 34.37070 | 139.37582 | 22835 ft | 492 kts | 63° |
| 2026-04-21 11:56 | 34.38381 | 139.41389 | 22299 ft | 487 kts | 63° |
| 2026-04-21 11:56 | 34.39678 | 139.45157 | 21785 ft | 483 kts | 63° |
| 2026-04-21 11:56 | 34.40963 | 139.48892 | 21282 ft | 478 kts | 63° |
| 2026-04-21 11:56 | 34.42234 | 139.52594 | 20786 ft | 474 kts | 63° |
| 2026-04-21 11:57 | 34.43494 | 139.56270 | 20293 ft | 470 kts | 63° |
| 2026-04-21 11:57 | 34.44339 | 139.58736 | 19963 ft | 468 kts | 63° |
| 2026-04-21 11:57 | 34.45566 | 139.62323 | 19470 ft | 464 kts | 63° |
| 2026-04-21 11:57 | 34.46797 | 139.65926 | 18979 ft | 460 kts | 63° |
| 2026-04-21 11:58 | 34.48249 | 139.69318 | 18469 ft | 448 kts | 50° |
| 2026-04-21 11:58 | 34.50195 | 139.72197 | 17913 ft | 437 kts | 39° |
| 2026-04-21 11:58 | 34.52456 | 139.74583 | 17353 ft | 425 kts | 28° |
| 2026-04-21 11:58 | 34.54941 | 139.76429 | 16819 ft | 414 kts | 23° |
| 2026-04-21 11:59 | 34.57424 | 139.78170 | 16310 ft | 411 kts | 23° |
| 2026-04-21 11:59 | 34.59880 | 139.79915 | 15807 ft | 408 kts | 24° |
| 2026-04-21 11:59 | 34.62310 | 139.81674 | 15293 ft | 405 kts | 25° |
| 2026-04-21 11:59 | 34.64718 | 139.83435 | 14788 ft | 402 kts | 25° |
| 2026-04-21 12:00 | 34.67112 | 139.85146 | 14277 ft | 392 kts | 21° |
| 2026-04-21 12:00 | 34.69612 | 139.86139 | 13752 ft | 373 kts | 1° |
| 2026-04-21 12:00 | 34.72157 | 139.86429 | 13225 ft | 365 kts | 0° |
| 2026-04-21 12:00 | 34.74679 | 139.86729 | 12693 ft | 363 kts | 1° |
| 2026-04-21 12:01 | 34.77194 | 139.87061 | 12188 ft | 361 kts | 2° |
| 2026-04-21 12:01 | 34.79687 | 139.87406 | 11667 ft | 359 kts | 2° |
| 2026-04-21 12:01 | 34.82119 | 139.87751 | 11196 ft | 357 kts | 3° |
| 2026-04-21 12:01 | 34.84583 | 139.88106 | 10901 ft | 349 kts | 3° |
| 2026-04-21 12:02 | 34.86969 | 139.88451 | 10723 ft | 339 kts | 3° |
| 2026-04-21 12:02 | 34.89853 | 139.88867 | 10536 ft | 326 kts | 3° |
| 2026-04-21 12:02 | 34.92073 | 139.89186 | 10389 ft | 316 kts | 4° |
| 2026-04-21 12:03 | 34.94219 | 139.89473 | 10239 ft | 301 kts | 359° |
| 2026-04-21 12:03 | 34.96209 | 139.89179 | 10122 ft | 279 kts | 342° |
| 2026-04-21 12:03 | 34.98047 | 139.88565 | 10014 ft | 270 kts | 342° |
| 2026-04-21 12:03 | 34.99827 | 139.87976 | 9770 ft | 267 kts | 342° |
| 2026-04-21 12:04 | 35.01614 | 139.87391 | 9447 ft | 265 kts | 342° |
| 2026-04-21 12:04 | 35.03399 | 139.86813 | 9126 ft | 264 kts | 343° |
| 2026-04-21 12:04 | 35.05177 | 139.86242 | 8799 ft | 263 kts | 343° |
| 2026-04-21 12:04 | 35.06931 | 139.85682 | 8482 ft | 262 kts | 343° |
| 2026-04-21 12:05 | 35.08694 | 139.85120 | 8157 ft | 262 kts | 343° |
| 2026-04-21 12:05 | 35.10459 | 139.84560 | 7828 ft | 262 kts | 343° |
| 2026-04-21 12:05 | 35.12223 | 139.84000 | 7505 ft | 262 kts | 344° |
| 2026-04-21 12:05 | 35.13982 | 139.83442 | 7191 ft | 262 kts | 344° |
| 2026-04-21 12:06 | 35.15745 | 139.82883 | 6870 ft | 261 kts | 344° |
| 2026-04-21 12:06 | 35.17506 | 139.82325 | 6552 ft | 261 kts | 344° |
| 2026-04-21 12:06 | 35.19274 | 139.81765 | 6223 ft | 262 kts | 344° |
| 2026-04-21 12:06 | 35.21043 | 139.81203 | 5899 ft | 262 kts | 345° |
| 2026-04-21 12:07 | 35.22783 | 139.80651 | 5567 ft | 262 kts | 345° |
| 2026-04-21 12:07 | 35.24551 | 139.80089 | 5235 ft | 262 kts | 345° |
| 2026-04-21 12:07 | 35.26313 | 139.79529 | 4910 ft | 261 kts | 346° |
| 2026-04-21 12:07 | 35.28019 | 139.78988 | 4599 ft | 261 kts | 346° |
| 2026-04-21 12:08 | 35.29775 | 139.78429 | 4313 ft | 258 kts | 346° |
| 2026-04-21 12:08 | 35.31519 | 139.78252 | 3953 ft | 251 kts | 9° |
| 2026-04-21 12:08 | 35.33145 | 139.78992 | 3665 ft | 251 kts | 27° |
| 2026-04-21 12:08 | 35.34617 | 139.80145 | 3391 ft | 250 kts | 29° |
| 2026-04-21 12:09 | 35.36064 | 139.81282 | 3117 ft | 247 kts | 28° |
| 2026-04-21 12:09 | 35.37507 | 139.82406 | 2857 ft | 244 kts | 28° |
| 2026-04-21 12:09 | 35.38938 | 139.83518 | 2565 ft | 243 kts | 29° |
| 2026-04-21 12:09 | 35.40332 | 139.84589 | 2227 ft | 232 kts | 26° |
| 2026-04-21 12:10 | 35.41797 | 139.85136 | 1887 ft | 212 kts | 4° |
| 2026-04-21 12:10 | 35.43210 | 139.85147 | 1628 ft | 194 kts | 360° |
| 2026-04-21 12:10 | 35.44457 | 139.84801 | 1568 ft | 178 kts | 338° |
| 2026-04-21 12:10 | 35.45532 | 139.84203 | 1488 ft | 161 kts | 338° |
| 2026-04-21 12:11 | 35.46538 | 139.83588 | 1500 ft | 164 kts | 334° |
| 2026-04-21 12:11 | 35.47516 | 139.82910 | 1456 ft | 160 kts | 334° |
| 2026-04-21 12:11 | 35.48479 | 139.82229 | 1204 ft | 156 kts | 333° |
| 2026-04-21 12:11 | 35.49404 | 139.81574 | 1002 ft | 153 kts | 334° |
| 2026-04-21 12:12 | 35.50337 | 139.80914 | 803 ft | 154 kts | 333° |
| 2026-04-21 12:12 | 35.51232 | 139.80281 | 618 ft | 148 kts | 332° |
| 2026-04-21 12:12 | 35.52128 | 139.79645 | 458 ft | 153 kts | 334° |
| 2026-04-21 12:12 | 35.53067 | 139.78979 | 241 ft | 157 kts | 333° |
| 2026-04-21 12:13 | 35.54000 | 139.78324 | 40 ft | 152 kts | 333° |
| 2026-04-21 12:13 | 35.54832 | 139.77736 | 30 ft | 116 kts | 330° |
| 2026-04-21 12:13 | 35.55365 | 139.77353 | 27 ft | 62 kts | 323° |
| 2026-04-21 12:13 | 35.55518 | 139.77135 | 30 ft | 12 kts | 299° |
| 2026-04-21 12:14 | 35.55498 | 139.77045 | 29 ft | 13 kts | 213° |
| 2026-04-21 12:14 | 35.55415 | 139.77066 | 30 ft | 13 kts | 153° |
| 2026-04-21 12:14 | 35.55341 | 139.77117 | 31 ft | 12 kts | 150° |
| 2026-04-21 12:14 | 35.55269 | 139.77167 | 27 ft | 12 kts | 150° |
| 2026-04-21 12:15 | 35.55198 | 139.77218 | 27 ft | 12 kts | 150° |
| 2026-04-21 12:15 | 35.55115 | 139.77278 | 29 ft | 18 kts | 149° |
| 2026-04-21 12:15 | 35.54993 | 139.77366 | 30 ft | 16 kts | 150° |
| 2026-04-21 12:15 | 35.54907 | 139.77409 | 29 ft | 14 kts | 189° |
| 2026-04-21 12:16 | 35.54842 | 139.77328 | 28 ft | 14 kts | 239° |
| 2026-04-21 12:16 | 35.54795 | 139.77228 | 29 ft | 14 kts | 240° |
| 2026-04-21 12:16 | 35.54746 | 139.77128 | 28 ft | 11 kts | 233° |
| 2026-04-21 12:16 | 35.54687 | 139.77057 | 26 ft | 13 kts | 234° |
| 2026-04-21 12:17 | 35.54659 | 139.76996 | 27 ft | 2 kts | 240° |
| 2026-04-21 12:17 | 35.54651 | 139.76979 | 28 ft | 2 kts | 239° |
| 2026-04-21 12:17 | 35.54648 | 139.76974 | 28 ft | 0 kts | 239° |